createdAt,value
2018-06-07T00:01:46.780Z,17.40
2018-06-07T00:04:15.082Z,17.30
2018-06-07T00:06:43.383Z,17.30
2018-06-07T00:09:11.657Z,17.20
2018-06-07T00:11:39.915Z,17.20
2018-06-07T00:14:08.194Z,17.20
2018-06-07T00:16:36.471Z,17.20
2018-06-07T00:19:04.787Z,17.20
2018-06-07T00:21:33.037Z,17.10
2018-06-07T00:24:01.290Z,17.10
2018-06-07T00:26:29.557Z,17.00
2018-06-07T00:28:57.832Z,17.00
2018-06-07T00:31:26.121Z,17.00
2018-06-07T00:33:54.376Z,17.00
2018-06-07T00:36:22.642Z,17.00
2018-06-07T00:38:50.915Z,17.00
2018-06-07T00:41:19.188Z,16.90
2018-06-07T00:43:47.488Z,16.90
2018-06-07T00:46:15.751Z,16.90
2018-06-07T00:48:44.012Z,16.90
2018-06-07T00:51:12.284Z,16.80
2018-06-07T00:53:40.563Z,16.80
2018-06-07T00:56:09.134Z,16.80
2018-06-07T00:58:37.368Z,16.80
2018-06-07T01:03:33.674Z,16.80
2018-06-07T01:06:01.940Z,16.70
2018-06-07T01:08:30.224Z,16.70
2018-06-07T01:10:58.669Z,16.70
2018-06-07T01:13:26.937Z,16.70
2018-06-07T01:15:55.233Z,16.70
2018-06-07T01:18:23.514Z,16.60
2018-06-07T01:20:51.812Z,16.60
2018-06-07T01:23:20.673Z,16.60
2018-06-07T01:25:48.920Z,16.60
2018-06-07T01:28:17.209Z,16.60
2018-06-07T01:30:50.792Z,16.50
2018-06-07T01:33:36.746Z,16.60
2018-06-07T01:36:05.034Z,16.50
2018-06-07T01:38:44.761Z,16.50
2018-06-07T01:41:13.047Z,16.50
2018-06-07T01:43:41.379Z,16.50
2018-06-07T01:46:09.625Z,16.50
2018-06-07T01:48:37.880Z,16.50
2018-06-07T01:51:06.188Z,16.50
2018-06-07T01:53:34.488Z,16.40
2018-06-07T01:56:02.763Z,16.40
2018-06-07T01:58:31.072Z,16.50
2018-06-07T02:00:59.371Z,16.40
2018-06-07T02:03:27.626Z,16.40
2018-06-07T02:05:55.942Z,16.50
2018-06-07T02:08:24.219Z,16.50
2018-06-07T02:10:52.855Z,16.40
2018-06-07T02:13:21.115Z,16.40
2018-06-07T02:15:49.751Z,16.40
2018-06-07T02:18:18.395Z,16.40
2018-06-07T02:20:46.700Z,16.40
2018-06-07T02:23:14.950Z,16.40
2018-06-07T02:25:43.238Z,16.40
2018-06-07T02:28:11.479Z,16.40
2018-06-07T02:30:39.771Z,16.40
2018-06-07T02:33:08.067Z,16.30
2018-06-07T02:35:36.355Z,16.30
2018-06-07T02:38:04.929Z,16.30
2018-06-07T02:40:33.314Z,16.30
2018-06-07T02:43:01.584Z,16.30
2018-06-07T02:45:29.891Z,16.20
2018-06-07T02:47:58.181Z,16.20
2018-06-07T02:50:26.505Z,16.30
2018-06-07T02:52:54.759Z,16.30
2018-06-07T02:55:23.019Z,16.30
2018-06-07T02:57:51.314Z,16.20
2018-06-07T03:00:19.569Z,16.20
2018-06-07T03:02:47.860Z,16.20
2018-06-07T03:05:16.439Z,16.20
2018-06-07T03:07:44.715Z,16.10
2018-06-07T03:10:12.998Z,16.10
2018-06-07T03:12:41.294Z,16.10
2018-06-07T03:15:09.559Z,16.10
2018-06-07T03:17:37.820Z,16.10
2018-06-07T03:20:06.088Z,16.10
2018-06-07T03:22:34.359Z,16.10
2018-06-07T03:25:02.686Z,16.10
2018-06-07T03:27:30.951Z,16.10
2018-06-07T03:29:59.262Z,16.10
2018-06-07T03:32:27.533Z,16.10
2018-06-07T03:34:55.823Z,16.10
2018-06-07T03:37:24.083Z,16.10
2018-06-07T03:39:52.380Z,16.10
2018-06-07T03:42:20.667Z,16.10
2018-06-07T03:44:48.943Z,16.10
2018-06-07T03:47:17.203Z,16.10
2018-06-07T03:49:45.478Z,16.20
2018-06-07T03:52:13.741Z,16.20
2018-06-07T03:54:42.046Z,16.20
2018-06-07T03:57:10.366Z,16.20
2018-06-07T03:59:38.652Z,16.20
2018-06-07T04:02:06.947Z,16.20
2018-06-07T04:04:35.235Z,16.30
2018-06-07T04:07:03.762Z,16.30
2018-06-07T04:09:32.022Z,16.30
2018-06-07T04:12:00.303Z,16.40
2018-06-07T04:14:28.564Z,16.40
2018-06-07T04:16:57.377Z,16.50
2018-06-07T04:19:25.671Z,16.50
2018-06-07T04:21:54.015Z,16.60
2018-06-07T04:24:22.302Z,16.60
2018-06-07T04:26:50.566Z,16.70
2018-06-07T04:29:18.842Z,16.70
2018-06-07T04:31:47.145Z,16.80
2018-06-07T04:34:15.431Z,16.80
2018-06-07T04:36:43.701Z,16.80
2018-06-07T04:39:11.974Z,16.90
2018-06-07T04:41:40.230Z,16.90
2018-06-07T04:44:08.530Z,17.00
2018-06-07T04:46:36.828Z,17.00
2018-06-07T04:49:05.131Z,17.10
2018-06-07T04:51:33.431Z,17.10
2018-06-07T04:54:01.695Z,17.20
2018-06-07T04:56:30.004Z,17.20
2018-06-07T04:58:58.283Z,17.30
2018-06-07T05:01:26.889Z,17.30
2018-06-07T05:03:55.380Z,17.40
2018-06-07T05:06:23.676Z,17.40
2018-06-07T05:08:51.968Z,17.50
2018-06-07T05:11:20.294Z,17.60
2018-06-07T05:13:48.595Z,17.70
2018-06-07T05:16:16.916Z,17.80
2018-06-07T05:18:45.220Z,17.80
2018-06-07T05:21:13.526Z,17.90
2018-06-07T05:23:41.949Z,18.10
2018-06-07T05:26:10.236Z,18.20
2018-06-07T05:28:38.558Z,18.30
2018-06-07T05:33:34.966Z,18.70
2018-06-07T05:36:03.366Z,18.80
2018-06-07T05:38:31.691Z,19.00
2018-06-07T05:41:00.002Z,19.20
2018-06-07T05:43:28.857Z,19.40
2018-06-07T05:45:57.152Z,19.50
2018-06-07T05:48:26.056Z,19.80
2018-06-07T05:50:54.911Z,20.00
2018-06-07T05:53:23.756Z,20.20
2018-06-07T05:55:52.624Z,20.40
2018-06-07T05:58:24.808Z,20.70
2018-06-07T06:00:53.700Z,20.90
2018-06-07T06:03:22.514Z,21.20
2018-06-07T06:05:51.553Z,21.40
2018-06-07T06:08:20.381Z,21.70
2018-06-07T06:10:49.284Z,22.00
2018-06-07T06:13:18.127Z,22.30
2018-06-07T06:15:56.305Z,22.50
2018-06-07T06:18:25.139Z,22.70
2018-06-07T06:20:54.027Z,23.00
2018-06-07T06:23:22.864Z,23.20
2018-06-07T06:25:54.767Z,23.40
2018-06-07T06:28:23.631Z,23.50
2018-06-07T06:30:52.548Z,23.70
2018-06-07T06:33:21.449Z,23.90
2018-06-07T06:35:50.844Z,24.00
2018-06-07T06:38:35.554Z,24.10
2018-06-07T06:41:04.657Z,24.10
2018-06-07T06:43:33.532Z,24.30
2018-06-07T06:48:31.143Z,24.30
2018-06-07T06:51:00.022Z,24.20
2018-06-07T06:53:28.897Z,24.30
2018-06-07T06:55:57.707Z,24.40
2018-06-07T07:01:04.817Z,24.60
2018-06-07T07:03:33.696Z,24.60
2018-06-07T07:06:02.619Z,24.70
2018-06-07T07:08:31.544Z,24.80
2018-06-07T07:11:00.423Z,24.80
2018-06-07T07:13:29.291Z,24.80
2018-06-07T07:18:29.967Z,25.00
2018-06-07T07:20:58.876Z,25.10
2018-06-07T07:23:27.771Z,25.30
2018-06-07T07:25:56.939Z,25.50
2018-06-07T07:28:25.782Z,25.50
2018-06-07T07:30:54.632Z,25.50
2018-06-07T07:33:23.494Z,25.60
2018-06-07T07:35:52.386Z,25.70
2018-06-07T07:38:21.239Z,25.70
2018-06-07T07:40:50.091Z,25.90
2018-06-07T07:43:18.973Z,25.90
2018-06-07T07:45:47.799Z,26.00
2018-06-07T07:48:16.626Z,26.00
2018-06-07T07:50:45.495Z,26.00
2018-06-07T07:53:14.343Z,26.10
2018-06-07T07:55:43.240Z,26.10
2018-06-07T07:58:12.375Z,26.10
2018-06-07T08:00:41.212Z,26.20
2018-06-07T08:03:10.119Z,26.20
2018-06-07T08:05:38.979Z,26.30
2018-06-07T08:08:08.229Z,26.40
2018-06-07T08:10:37.077Z,26.50
2018-06-07T08:13:06.365Z,26.40
2018-06-07T08:15:35.201Z,26.50
2018-06-07T08:18:04.037Z,26.60
2018-06-07T08:20:32.856Z,26.70
2018-06-07T08:23:01.688Z,26.90
2018-06-07T08:25:30.568Z,27.00
2018-06-07T08:27:59.501Z,27.00
2018-06-07T08:30:28.693Z,27.10
2018-06-07T08:32:57.532Z,27.20
2018-06-07T08:35:26.421Z,27.20
2018-06-07T08:37:55.291Z,27.30
2018-06-07T08:40:24.158Z,27.20
2018-06-07T08:42:53.339Z,27.40
2018-06-07T08:45:22.187Z,27.30
2018-06-07T08:47:51.026Z,27.20
2018-06-07T08:50:19.915Z,27.30
2018-06-07T08:52:49.339Z,27.40
2018-06-07T08:55:18.161Z,27.50
2018-06-07T08:57:47.064Z,27.60
2018-06-07T09:00:15.937Z,27.50
2018-06-07T09:02:45.012Z,27.40
2018-06-07T09:05:13.903Z,27.50
2018-06-07T09:07:42.748Z,27.50
2018-06-07T09:10:11.600Z,27.70
2018-06-07T09:12:40.485Z,27.80
2018-06-07T09:15:09.338Z,27.90
2018-06-07T09:17:38.199Z,27.90
2018-06-07T09:20:07.104Z,27.90
2018-06-07T09:22:35.938Z,28.00
2018-06-07T09:25:06.758Z,28.10
2018-06-07T09:27:35.581Z,28.00
2018-06-07T09:30:04.421Z,28.00
2018-06-07T09:32:33.299Z,28.00
2018-06-07T09:35:02.151Z,28.00
2018-06-07T09:39:59.839Z,28.20
2018-06-07T09:42:28.407Z,28.20
2018-06-07T09:44:57.294Z,28.30
2018-06-07T09:47:26.138Z,28.30
2018-06-07T09:49:54.949Z,28.40
2018-06-07T09:52:23.481Z,28.40
2018-06-07T09:57:20.588Z,28.50
2018-06-07T09:59:49.144Z,28.50
2018-06-07T10:02:17.681Z,28.50
2018-06-07T10:04:46.623Z,28.40
2018-06-07T10:07:15.195Z,28.40
2018-06-07T10:09:43.777Z,28.50
2018-06-07T10:12:12.364Z,28.60
2018-06-07T10:14:40.901Z,28.80
2018-06-07T10:17:09.463Z,28.90
2018-06-07T10:19:38.046Z,28.80
2018-06-07T10:24:35.343Z,29.00
2018-06-07T10:27:03.899Z,29.10
2018-06-07T10:29:32.738Z,29.20
2018-06-07T10:32:01.314Z,29.20
2018-06-07T10:34:29.877Z,29.10
2018-06-07T10:36:58.541Z,29.30
2018-06-07T10:39:27.113Z,29.20
2018-06-07T10:41:55.692Z,29.20
2018-06-07T10:44:24.246Z,29.20
2018-06-07T10:46:52.910Z,29.20
2018-06-07T10:49:21.499Z,29.20
2018-06-07T10:51:50.089Z,29.20
2018-06-07T10:54:18.627Z,29.40
2018-06-07T10:56:47.211Z,29.50
2018-06-07T10:59:15.744Z,29.60
2018-06-07T11:01:44.382Z,29.60
2018-06-07T11:04:12.999Z,29.70
2018-06-07T11:06:41.535Z,29.90
2018-06-07T11:09:10.105Z,30.20
2018-06-07T11:11:38.671Z,30.30
2018-06-07T11:14:07.268Z,30.40
2018-06-07T11:16:35.867Z,30.50
2018-06-07T11:19:04.433Z,30.50
2018-06-07T11:21:33.035Z,30.70
2018-06-07T11:24:01.680Z,30.90
2018-06-07T11:26:30.387Z,30.70
2018-06-07T11:28:59.335Z,30.50
2018-06-07T11:33:56.669Z,30.10
2018-06-07T11:36:25.269Z,29.90
2018-06-07T11:38:54.130Z,29.30
2018-06-07T11:41:23.063Z,29.20
2018-06-07T11:43:51.956Z,29.20
2018-06-07T11:46:20.524Z,29.10
2018-06-07T11:48:49.105Z,28.90
2018-06-07T11:51:18.311Z,28.60
2018-06-07T11:53:47.219Z,28.40
2018-06-07T11:56:16.072Z,28.10
2018-06-07T11:58:45.210Z,28.20
2018-06-07T12:01:14.066Z,28.30
2018-06-07T12:03:42.989Z,28.10
2018-06-07T12:06:11.864Z,28.00
2018-06-07T12:08:40.769Z,28.00
2018-06-07T12:11:09.635Z,27.90
2018-06-07T12:13:38.837Z,27.90
2018-06-07T12:16:07.737Z,27.80
2018-06-07T12:18:36.627Z,27.90
2018-06-07T12:21:05.583Z,27.90
2018-06-07T12:23:34.488Z,27.90
2018-06-07T12:26:06.800Z,27.80
2018-06-07T12:31:04.570Z,27.90
2018-06-07T12:33:33.491Z,28.00
2018-06-07T12:36:02.336Z,28.00
2018-06-07T12:38:31.354Z,28.30
2018-06-07T12:41:00.212Z,28.40
2018-06-07T12:43:29.111Z,28.30
2018-06-07T12:45:58.017Z,28.50
2018-06-07T12:48:26.924Z,28.50
2018-06-07T12:50:55.927Z,28.60
2018-06-07T12:53:24.823Z,28.60
2018-06-07T12:55:53.735Z,28.70
2018-06-07T12:58:22.318Z,28.70
2018-06-07T13:00:51.694Z,28.80
2018-06-07T13:03:20.663Z,28.80
2018-06-07T13:05:50.036Z,28.70
2018-06-07T13:08:19.796Z,28.70
2018-06-07T13:10:48.772Z,28.60
2018-06-07T13:13:17.651Z,28.50
2018-06-07T13:15:47.284Z,28.60
2018-06-07T13:18:16.131Z,28.70
2018-06-07T13:23:13.722Z,28.60
2018-06-07T13:25:42.758Z,28.70
2018-06-07T13:28:11.650Z,28.80
2018-06-07T13:30:40.522Z,28.80
2018-06-07T13:33:09.398Z,28.90
2018-06-07T13:35:38.272Z,29.00
2018-06-07T13:38:07.461Z,29.00
2018-06-07T13:40:36.386Z,28.90
2018-06-07T13:43:05.684Z,28.90
2018-06-07T13:45:34.594Z,29.10
2018-06-07T13:48:03.167Z,29.30
2018-06-07T13:50:32.084Z,29.30
2018-06-07T13:53:01.007Z,29.30
2018-06-07T13:55:29.644Z,29.20
2018-06-07T13:57:58.626Z,29.20
2018-06-07T14:00:30.723Z,29.10
2018-06-07T14:02:59.652Z,29.00
2018-06-07T14:07:57.921Z,29.00
2018-06-07T14:10:26.559Z,29.20
2018-06-07T14:12:55.646Z,29.10
2018-06-07T14:15:24.537Z,29.00
2018-06-07T14:17:53.528Z,29.00
2018-06-07T14:20:22.172Z,29.00
2018-06-07T14:22:50.833Z,29.30
2018-06-07T14:25:19.468Z,29.30
2018-06-07T14:27:48.108Z,29.40
2018-06-07T14:30:16.719Z,29.60
2018-06-07T14:32:45.348Z,29.50
2018-06-07T14:35:14.012Z,29.50
2018-06-07T14:37:42.673Z,29.90
2018-06-07T14:40:11.360Z,30.10
2018-06-07T14:42:40.200Z,30.60
2018-06-07T14:45:08.848Z,30.80
2018-06-07T14:47:37.492Z,31.00
2018-06-07T14:50:06.435Z,31.20
2018-06-07T14:52:35.088Z,31.10
2018-06-07T14:55:03.681Z,31.30
2018-06-07T15:00:00.700Z,31.00
2018-06-07T15:02:29.331Z,31.00
2018-06-07T15:04:57.969Z,31.40
2018-06-07T15:07:26.615Z,31.50
2018-06-07T15:12:23.789Z,32.00
2018-06-07T15:17:21.030Z,32.60
2018-06-07T15:19:49.812Z,32.50
2018-06-07T15:22:18.428Z,32.40
2018-06-07T15:24:47.069Z,32.40
2018-06-07T15:27:18.488Z,32.20
2018-06-07T15:29:47.129Z,32.30
2018-06-07T15:32:15.971Z,32.40
2018-06-07T15:34:44.592Z,32.80
2018-06-07T15:37:13.199Z,33.20
2018-06-07T15:39:41.835Z,33.10
2018-06-07T15:42:10.465Z,32.80
2018-06-07T15:44:39.076Z,32.60
2018-06-07T15:47:07.991Z,32.40
2018-06-07T15:49:36.560Z,31.80
2018-06-07T15:52:05.279Z,31.80
2018-06-07T15:54:33.855Z,31.90
2018-06-07T15:57:02.463Z,32.20
2018-06-07T15:59:31.071Z,32.50
2018-06-07T16:01:59.685Z,32.70
2018-06-07T16:04:28.312Z,33.00
2018-06-07T16:06:56.936Z,33.00
2018-06-07T16:09:25.813Z,33.10
2018-06-07T16:11:54.448Z,33.50
2018-06-07T16:14:23.079Z,33.50
2018-06-07T16:16:51.654Z,33.50
2018-06-07T16:19:20.279Z,33.50
2018-06-07T16:21:48.912Z,33.50
2018-06-07T16:24:17.552Z,33.20
2018-06-07T16:26:46.158Z,33.00
2018-06-07T16:29:14.744Z,33.10
2018-06-07T16:31:43.437Z,33.20
2018-06-07T16:34:12.330Z,32.30
2018-06-07T16:36:40.902Z,31.70
2018-06-07T16:39:09.511Z,31.50
2018-06-07T16:41:38.259Z,30.60
2018-06-07T16:44:06.873Z,30.00
2018-06-07T16:46:35.508Z,29.70
2018-06-07T16:49:04.366Z,28.80
2018-06-07T16:51:32.969Z,28.30
2018-06-07T16:56:30.355Z,27.70
2018-06-07T16:58:59.015Z,27.40
2018-06-07T17:01:27.594Z,26.10
2018-06-07T17:03:56.491Z,25.90
2018-06-07T17:06:25.749Z,25.60
2018-06-07T17:08:54.705Z,25.40
2018-06-07T17:11:23.333Z,25.00
2018-06-07T17:13:52.186Z,24.60
2018-06-07T17:16:21.060Z,24.50
2018-06-07T17:18:50.261Z,24.20
2018-06-07T17:21:19.164Z,23.80
2018-06-07T17:23:48.091Z,23.30
2018-06-07T17:26:16.973Z,23.00
2018-06-07T17:28:45.920Z,22.80
2018-06-07T17:31:14.891Z,22.60
2018-06-07T17:33:43.765Z,22.50
2018-06-07T17:36:15.484Z,22.40
2018-06-07T17:58:04.503Z,22.30
2018-06-07T18:00:33.516Z,22.10
2018-06-07T18:03:02.454Z,21.00
2018-06-07T18:05:31.349Z,20.90
2018-06-07T18:08:00.245Z,20.70
2018-06-07T18:10:29.207Z,20.60
2018-06-07T18:12:58.261Z,20.30
2018-06-07T18:15:27.292Z,20.30
2018-06-07T18:17:56.219Z,20.10
2018-06-07T18:20:25.073Z,19.90
2018-06-07T18:22:53.975Z,19.70
2018-06-07T18:25:22.850Z,19.60
2018-06-07T18:27:51.439Z,19.50
2018-06-07T18:30:19.760Z,19.30
2018-06-07T18:32:48.642Z,19.10
2018-06-07T18:35:16.951Z,19.00
2018-06-07T18:37:45.935Z,18.90
2018-06-07T18:40:14.395Z,18.80
2018-06-07T18:42:42.993Z,18.80
2018-06-07T18:45:11.327Z,18.80
2018-06-07T18:47:40.237Z,18.80
2018-06-07T18:50:08.832Z,18.90
2018-06-07T18:52:37.786Z,18.90
2018-06-07T18:55:07.189Z,19.00
2018-06-07T18:57:35.487Z,18.90
2018-06-07T19:00:04.075Z,18.70
2018-06-07T19:02:32.402Z,18.70
2018-06-07T19:05:00.716Z,18.60
2018-06-07T19:07:29.028Z,18.40
2018-06-07T19:10:01.378Z,18.30
2018-06-07T19:12:29.666Z,18.10
2018-06-07T19:15:03.426Z,18.00
2018-06-07T19:17:31.745Z,17.90
2018-06-07T19:20:05.518Z,17.90
2018-06-07T19:22:33.899Z,17.80
2018-06-07T19:25:07.544Z,17.80
2018-06-07T19:27:35.908Z,17.60
2018-06-07T19:30:04.525Z,17.40
2018-06-07T19:32:38.121Z,17.40
2018-06-07T19:35:10.786Z,17.40
2018-06-07T19:37:39.215Z,17.30
2018-06-07T19:40:12.995Z,17.10
2018-06-07T19:42:41.304Z,16.90
2018-06-07T19:45:09.946Z,16.90
2018-06-07T19:47:38.319Z,17.00
2018-06-07T19:50:06.674Z,16.80
2018-06-07T19:52:35.574Z,16.80
2018-06-07T19:55:03.895Z,16.70
2018-06-07T19:57:32.283Z,16.70
2018-06-07T20:00:00.689Z,16.60
2018-06-07T20:02:29.066Z,16.60
2018-06-07T20:04:57.497Z,16.60
2018-06-07T20:07:25.813Z,16.60
2018-06-07T20:09:54.212Z,16.70
2018-06-07T20:12:22.527Z,16.60
2018-06-07T20:14:50.936Z,16.60
2018-06-07T20:17:19.226Z,16.50
2018-06-07T20:19:47.584Z,16.50
2018-06-07T20:22:15.929Z,16.50
2018-06-07T20:24:44.261Z,16.40
2018-06-07T20:27:12.637Z,16.40
2018-06-07T20:29:41.305Z,16.50
2018-06-07T20:32:09.656Z,16.50
2018-06-07T20:34:37.990Z,16.50
2018-06-07T20:37:06.336Z,16.50
2018-06-07T20:39:34.673Z,16.50
2018-06-07T20:42:03.281Z,16.50
2018-06-07T20:44:31.590Z,16.60
2018-06-07T20:47:06.378Z,16.50
2018-06-07T20:49:34.682Z,16.50
2018-06-07T20:52:03.261Z,16.40
2018-06-07T20:54:31.577Z,16.40
2018-06-07T20:57:00.153Z,16.40
2018-06-07T20:59:28.531Z,16.30
2018-06-07T21:01:56.826Z,16.30
2018-06-07T21:04:25.183Z,16.30
2018-06-07T21:06:53.696Z,16.50
2018-06-07T21:09:22.120Z,16.50
2018-06-07T21:11:50.527Z,16.50
2018-06-07T21:16:47.026Z,16.60
2018-06-07T21:19:15.388Z,16.70
2018-06-07T21:21:43.729Z,16.80
2018-06-07T21:24:12.026Z,16.80
2018-06-07T21:26:40.369Z,16.80
2018-06-07T21:29:08.670Z,16.80
2018-06-07T21:31:37.007Z,16.80
2018-06-07T21:34:05.495Z,16.80
2018-06-07T21:36:33.838Z,16.70
2018-06-07T21:39:02.150Z,16.70
2018-06-07T21:41:30.494Z,16.60
2018-06-07T21:43:58.822Z,16.60
2018-06-07T21:46:27.142Z,16.60
2018-06-07T21:48:55.675Z,16.60
2018-06-07T21:51:24.154Z,16.60
2018-06-07T21:53:55.367Z,16.50
2018-06-07T21:56:23.721Z,16.50
2018-06-07T21:58:52.055Z,16.50
2018-06-07T22:01:20.366Z,16.50
2018-06-07T22:03:48.668Z,16.40
2018-06-07T22:06:16.968Z,16.40
2018-06-07T22:08:45.293Z,16.40
2018-06-07T22:11:13.577Z,16.40
2018-06-07T22:13:41.928Z,16.40
2018-06-07T22:16:10.413Z,16.30
2018-06-07T22:18:38.764Z,16.40
2018-06-07T22:21:07.094Z,16.30
2018-06-07T22:23:35.411Z,16.30
2018-06-07T22:26:03.757Z,16.30
2018-06-07T22:28:32.123Z,16.30
2018-06-07T22:31:00.405Z,16.30
2018-06-07T22:33:28.697Z,16.30
2018-06-07T22:35:56.974Z,16.30
2018-06-07T22:38:25.260Z,16.30
2018-06-07T22:40:53.596Z,16.30
2018-06-07T22:43:21.905Z,16.20
2018-06-07T22:45:50.198Z,16.20
2018-06-07T22:48:18.489Z,16.30
2018-06-07T22:50:47.415Z,16.20
2018-06-07T22:53:15.714Z,16.30
2018-06-07T22:55:44.074Z,16.20
2018-06-07T22:58:12.356Z,16.30
2018-06-07T23:00:40.628Z,16.30
2018-06-07T23:03:08.943Z,16.40
2018-06-07T23:05:37.263Z,16.30
2018-06-07T23:08:05.675Z,16.30
2018-06-07T23:10:34.022Z,16.30
2018-06-07T23:13:02.317Z,16.40
2018-06-07T23:15:30.632Z,16.30
2018-06-07T23:17:58.934Z,16.40
2018-06-07T23:20:27.595Z,16.40
2018-06-07T23:25:23.959Z,16.40
2018-06-07T23:27:52.240Z,16.40
2018-06-07T23:30:20.564Z,16.40
2018-06-07T23:32:48.847Z,16.40
2018-06-07T23:35:17.124Z,16.40
2018-06-07T23:37:45.463Z,16.40
2018-06-07T23:40:13.737Z,16.30
2018-06-07T23:42:42.051Z,16.40
2018-06-07T23:45:10.385Z,16.40
2018-06-07T23:47:38.666Z,16.40
2018-06-07T23:50:06.989Z,16.40
2018-06-07T23:52:35.303Z,16.40
2018-06-07T23:55:03.601Z,16.40
2018-06-07T23:57:31.899Z,16.50
